sensor_id;sensor_type;location;lat;lon;timestamp;temperature;humidity
13482;DHT22;6813;60.352;15.746;2023-04-15T00:00:09;4.40;99.90
13482;DHT22;6813;60.352;15.746;2023-04-15T00:02:35;4.40;99.90
13482;DHT22;6813;60.352;15.746;2023-04-15T00:05:02;4.40;99.90
13482;DHT22;6813;60.352;15.746;2023-04-15T00:07:28;4.40;99.90
13482;DHT22;6813;60.352;15.746;2023-04-15T00:09:54;4.30;99.90
13482;DHT22;6813;60.352;15.746;2023-04-15T00:12:22;4.30;99.90
13482;DHT22;6813;60.352;15.746;2023-04-15T00:14:48;4.40;99.90
13482;DHT22;6813;60.352;15.746;2023-04-15T00:17:14;4.30;99.90
13482;DHT22;6813;60.352;15.746;2023-04-15T00:19:40;4.30;99.90
13482;DHT22;6813;60.352;15.746;2023-04-15T00:22:06;4.30;99.90
13482;DHT22;6813;60.352;15.746;2023-04-15T00:24:32;4.30;99.90
13482;DHT22;6813;60.352;15.746;2023-04-15T00:26:58;4.40;99.90
13482;DHT22;6813;60.352;15.746;2023-04-15T00:29:25;4.30;99.90
13482;DHT22;6813;60.352;15.746;2023-04-15T00:31:50;4.30;99.90
13482;DHT22;6813;60.352;15.746;2023-04-15T00:34:16;4.30;99.90
13482;DHT22;6813;60.352;15.746;2023-04-15T00:36:43;4.30;99.90
13482;DHT22;6813;60.352;15.746;2023-04-15T00:39:09;4.30;99.90
13482;DHT22;6813;60.352;15.746;2023-04-15T00:41:34;4.20;99.90
13482;DHT22;6813;60.352;15.746;2023-04-15T00:44:05;4.30;99.90
13482;DHT22;6813;60.352;15.746;2023-04-15T00:46:32;4.30;99.90
13482;DHT22;6813;60.352;15.746;2023-04-15T00:49:00;4.30;99.90
13482;DHT22;6813;60.352;15.746;2023-04-15T00:51:27;4.30;99.90
13482;DHT22;6813;60.352;15.746;2023-04-15T00:53:52;4.30;99.90
13482;DHT22;6813;60.352;15.746;2023-04-15T00:56:20;4.40;99.90
13482;DHT22;6813;60.352;15.746;2023-04-15T00:58:50;4.30;99.90
13482;DHT22;6813;60.352;15.746;2023-04-15T01:01:19;4.40;99.90
13482;DHT22;6813;60.352;15.746;2023-04-15T01:03:50;4.30;99.90
13482;DHT22;6813;60.352;15.746;2023-04-15T01:06:16;4.30;99.90
13482;DHT22;6813;60.352;15.746;2023-04-15T01:08:44;4.30;99.90
13482;DHT22;6813;60.352;15.746;2023-04-15T01:11:11;4.30;99.90
13482;DHT22;6813;60.352;15.746;2023-04-15T01:13:38;4.40;99.90
13482;DHT22;6813;60.352;15.746;2023-04-15T01:16:04;4.40;99.90
13482;DHT22;6813;60.352;15.746;2023-04-15T01:18:30;4.40;99.90
13482;DHT22;6813;60.352;15.746;2023-04-15T01:20:57;4.50;99.90
13482;DHT22;6813;60.352;15.746;2023-04-15T01:23:24;4.50;99.90
13482;DHT22;6813;60.352;15.746;2023-04-15T01:25:52;4.50;99.90
13482;DHT22;6813;60.352;15.746;2023-04-15T01:28:18;4.40;99.90
13482;DHT22;6813;60.352;15.746;2023-04-15T01:30:44;4.40;99.90
13482;DHT22;6813;60.352;15.746;2023-04-15T01:33:10;4.40;99.90
13482;DHT22;6813;60.352;15.746;2023-04-15T01:35:36;4.40;99.90
13482;DHT22;6813;60.352;15.746;2023-04-15T01:38:07;4.40;99.90
13482;DHT22;6813;60.352;15.746;2023-04-15T01:40:34;4.30;99.90
13482;DHT22;6813;60.352;15.746;2023-04-15T01:43:00;4.30;99.90
13482;DHT22;6813;60.352;15.746;2023-04-15T01:45:27;4.30;99.90
13482;DHT22;6813;60.352;15.746;2023-04-15T01:47:53;4.30;99.90
13482;DHT22;6813;60.352;15.746;2023-04-15T01:50:19;4.30;99.90
13482;DHT22;6813;60.352;15.746;2023-04-15T01:52:45;4.30;99.90
13482;DHT22;6813;60.352;15.746;2023-04-15T01:55:12;4.30;99.90
13482;DHT22;6813;60.352;15.746;2023-04-15T01:57:38;4.20;99.90
13482;DHT22;6813;60.352;15.746;2023-04-15T02:00:05;4.20;99.90
13482;DHT22;6813;60.352;15.746;2023-04-15T02:02:32;4.20;99.90
13482;DHT22;6813;60.352;15.746;2023-04-15T02:04:58;4.20;99.90
13482;DHT22;6813;60.352;15.746;2023-04-15T02:07:25;4.20;99.90
13482;DHT22;6813;60.352;15.746;2023-04-15T02:09:50;4.10;99.90
13482;DHT22;6813;60.352;15.746;2023-04-15T02:12:16;4.00;99.90
13482;DHT22;6813;60.352;15.746;2023-04-15T02:14:42;4.10;99.90
13482;DHT22;6813;60.352;15.746;2023-04-15T02:17:07;4.00;99.90
13482;DHT22;6813;60.352;15.746;2023-04-15T02:19:34;4.00;99.90
13482;DHT22;6813;60.352;15.746;2023-04-15T02:22:00;4.00;99.90
13482;DHT22;6813;60.352;15.746;2023-04-15T02:24:29;4.00;99.90
13482;DHT22;6813;60.352;15.746;2023-04-15T02:26:55;4.00;99.90
13482;DHT22;6813;60.352;15.746;2023-04-15T02:29:22;4.00;99.90
13482;DHT22;6813;60.352;15.746;2023-04-15T02:31:48;4.00;99.90
13482;DHT22;6813;60.352;15.746;2023-04-15T02:34:14;4.00;99.90
13482;DHT22;6813;60.352;15.746;2023-04-15T02:36:39;4.00;99.90
13482;DHT22;6813;60.352;15.746;2023-04-15T02:39:05;3.90;99.90
13482;DHT22;6813;60.352;15.746;2023-04-15T02:41:31;3.90;99.90
13482;DHT22;6813;60.352;15.746;2023-04-15T02:43:57;3.90;99.90
13482;DHT22;6813;60.352;15.746;2023-04-15T02:46:23;3.80;99.90
13482;DHT22;6813;60.352;15.746;2023-04-15T02:48:49;3.70;99.90
13482;DHT22;6813;60.352;15.746;2023-04-15T02:51:17;3.70;99.90
13482;DHT22;6813;60.352;15.746;2023-04-15T02:53:47;3.70;99.90
13482;DHT22;6813;60.352;15.746;2023-04-15T02:56:13;3.70;99.90
13482;DHT22;6813;60.352;15.746;2023-04-15T02:58:42;3.70;99.90
13482;DHT22;6813;60.352;15.746;2023-04-15T03:01:09;3.60;99.90
13482;DHT22;6813;60.352;15.746;2023-04-15T03:03:35;3.60;99.90
13482;DHT22;6813;60.352;15.746;2023-04-15T03:06:01;3.70;99.90
13482;DHT22;6813;60.352;15.746;2023-04-15T03:08:26;3.60;99.90
13482;DHT22;6813;60.352;15.746;2023-04-15T03:10:52;3.60;99.90
13482;DHT22;6813;60.352;15.746;2023-04-15T03:13:19;3.60;99.90
13482;DHT22;6813;60.352;15.746;2023-04-15T03:15:46;3.60;99.90
13482;DHT22;6813;60.352;15.746;2023-04-15T03:18:12;3.50;99.90
13482;DHT22;6813;60.352;15.746;2023-04-15T03:20:37;3.50;99.90
13482;DHT22;6813;60.352;15.746;2023-04-15T03:23:03;3.50;99.90
13482;DHT22;6813;60.352;15.746;2023-04-15T03:25:29;3.50;99.90
13482;DHT22;6813;60.352;15.746;2023-04-15T03:27:55;3.50;99.90
13482;DHT22;6813;60.352;15.746;2023-04-15T03:30:20;3.50;99.90
13482;DHT22;6813;60.352;15.746;2023-04-15T03:32:46;3.40;99.90
13482;DHT22;6813;60.352;15.746;2023-04-15T03:35:12;3.40;99.90
13482;DHT22;6813;60.352;15.746;2023-04-15T03:37:37;3.40;99.90
13482;DHT22;6813;60.352;15.746;2023-04-15T03:40:03;3.40;99.90
13482;DHT22;6813;60.352;15.746;2023-04-15T03:42:30;3.30;99.90
13482;DHT22;6813;60.352;15.746;2023-04-15T03:44:55;3.30;99.90
13482;DHT22;6813;60.352;15.746;2023-04-15T03:47:21;3.40;99.90
13482;DHT22;6813;60.352;15.746;2023-04-15T03:49:47;3.40;99.90
13482;DHT22;6813;60.352;15.746;2023-04-15T03:52:13;3.40;99.90
13482;DHT22;6813;60.352;15.746;2023-04-15T03:54:39;3.50;99.90
13482;DHT22;6813;60.352;15.746;2023-04-15T03:57:04;3.50;99.90
13482;DHT22;6813;60.352;15.746;2023-04-15T03:59:31;3.50;99.90
13482;DHT22;6813;60.352;15.746;2023-04-15T04:01:56;3.50;99.90
13482;DHT22;6813;60.352;15.746;2023-04-15T04:04:22;3.60;99.90
13482;DHT22;6813;60.352;15.746;2023-04-15T04:06:48;3.60;99.90
13482;DHT22;6813;60.352;15.746;2023-04-15T04:09:14;3.60;99.90
13482;DHT22;6813;60.352;15.746;2023-04-15T04:11:39;3.70;99.90
13482;DHT22;6813;60.352;15.746;2023-04-15T04:14:05;3.70;99.90
13482;DHT22;6813;60.352;15.746;2023-04-15T04:16:31;3.70;99.90
13482;DHT22;6813;60.352;15.746;2023-04-15T04:18:57;3.80;99.90
13482;DHT22;6813;60.352;15.746;2023-04-15T04:21:23;3.80;99.90
13482;DHT22;6813;60.352;15.746;2023-04-15T04:23:48;3.80;99.90
13482;DHT22;6813;60.352;15.746;2023-04-15T04:26:15;3.70;99.90
13482;DHT22;6813;60.352;15.746;2023-04-15T04:28:40;3.70;99.90
13482;DHT22;6813;60.352;15.746;2023-04-15T04:31:07;3.70;99.90
13482;DHT22;6813;60.352;15.746;2023-04-15T04:33:33;3.70;99.90
13482;DHT22;6813;60.352;15.746;2023-04-15T04:35:58;3.70;99.90
13482;DHT22;6813;60.352;15.746;2023-04-15T04:38:24;3.80;99.90
13482;DHT22;6813;60.352;15.746;2023-04-15T04:40:50;3.80;99.90
13482;DHT22;6813;60.352;15.746;2023-04-15T04:43:16;3.90;99.90
13482;DHT22;6813;60.352;15.746;2023-04-15T04:45:42;3.90;99.90
13482;DHT22;6813;60.352;15.746;2023-04-15T04:48:07;4.00;99.90
13482;DHT22;6813;60.352;15.746;2023-04-15T04:50:35;4.20;99.90
13482;DHT22;6813;60.352;15.746;2023-04-15T04:53:01;4.40;99.90
13482;DHT22;6813;60.352;15.746;2023-04-15T04:55:27;4.60;99.90
13482;DHT22;6813;60.352;15.746;2023-04-15T04:57:53;4.80;99.90
13482;DHT22;6813;60.352;15.746;2023-04-15T05:00:19;5.00;99.90
13482;DHT22;6813;60.352;15.746;2023-04-15T05:02:45;5.20;99.90
13482;DHT22;6813;60.352;15.746;2023-04-15T05:05:11;5.40;99.90
13482;DHT22;6813;60.352;15.746;2023-04-15T05:07:37;5.60;99.90
13482;DHT22;6813;60.352;15.746;2023-04-15T05:10:04;5.80;99.90
13482;DHT22;6813;60.352;15.746;2023-04-15T05:12:30;6.00;99.90
13482;DHT22;6813;60.352;15.746;2023-04-15T05:14:56;6.20;99.90
13482;DHT22;6813;60.352;15.746;2023-04-15T05:17:22;6.40;99.90
13482;DHT22;6813;60.352;15.746;2023-04-15T05:19:48;6.50;99.90
13482;DHT22;6813;60.352;15.746;2023-04-15T05:22:14;6.80;99.90
13482;DHT22;6813;60.352;15.746;2023-04-15T05:24:40;6.90;99.90
13482;DHT22;6813;60.352;15.746;2023-04-15T05:27:05;7.10;99.90
13482;DHT22;6813;60.352;15.746;2023-04-15T05:29:33;7.30;99.90
13482;DHT22;6813;60.352;15.746;2023-04-15T05:31:59;7.50;99.90
13482;DHT22;6813;60.352;15.746;2023-04-15T05:34:24;7.80;99.90
13482;DHT22;6813;60.352;15.746;2023-04-15T05:36:51;8.00;99.90
13482;DHT22;6813;60.352;15.746;2023-04-15T05:39:17;8.20;99.90
13482;DHT22;6813;60.352;15.746;2023-04-15T05:41:43;8.30;99.90
13482;DHT22;6813;60.352;15.746;2023-04-15T05:44:08;8.40;99.90
13482;DHT22;6813;60.352;15.746;2023-04-15T05:46:34;8.60;99.90
13482;DHT22;6813;60.352;15.746;2023-04-15T05:49:00;8.70;99.90
13482;DHT22;6813;60.352;15.746;2023-04-15T05:51:26;8.70;99.90
13482;DHT22;6813;60.352;15.746;2023-04-15T05:53:52;8.90;99.90
13482;DHT22;6813;60.352;15.746;2023-04-15T05:56:17;9.10;99.90
13482;DHT22;6813;60.352;15.746;2023-04-15T06:02:09;9.50;99.90
13482;DHT22;6813;60.352;15.746;2023-04-15T06:04:35;9.70;99.90
13482;DHT22;6813;60.352;15.746;2023-04-15T06:07:01;9.80;99.90
13482;DHT22;6813;60.352;15.746;2023-04-15T06:09:27;10.00;99.60
13482;DHT22;6813;60.352;15.746;2023-04-15T06:11:53;10.20;99.60
13482;DHT22;6813;60.352;15.746;2023-04-15T06:14:20;10.40;99.60
13482;DHT22;6813;60.352;15.746;2023-04-15T06:16:46;10.60;98.70
13482;DHT22;6813;60.352;15.746;2023-04-15T06:19:11;10.70;98.10
13482;DHT22;6813;60.352;15.746;2023-04-15T06:21:38;10.80;98.00
13482;DHT22;6813;60.352;15.746;2023-04-15T06:24:04;11.00;98.80
13482;DHT22;6813;60.352;15.746;2023-04-15T06:26:30;11.20;97.50
13482;DHT22;6813;60.352;15.746;2023-04-15T06:28:56;11.30;97.20
13482;DHT22;6813;60.352;15.746;2023-04-15T06:31:22;11.30;95.90
13482;DHT22;6813;60.352;15.746;2023-04-15T06:33:48;11.50;96.70
13482;DHT22;6813;60.352;15.746;2023-04-15T06:36:13;11.60;96.20
13482;DHT22;6813;60.352;15.746;2023-04-15T06:38:39;11.80;96.60
13482;DHT22;6813;60.352;15.746;2023-04-15T06:41:06;11.80;94.80
13482;DHT22;6813;60.352;15.746;2023-04-15T06:43:31;11.70;94.40
13482;DHT22;6813;60.352;15.746;2023-04-15T06:45:57;11.40;94.10
13482;DHT22;6813;60.352;15.746;2023-04-15T06:48:24;11.30;94.60
13482;DHT22;6813;60.352;15.746;2023-04-15T06:50:50;11.20;94.50
13482;DHT22;6813;60.352;15.746;2023-04-15T06:56:58;10.80;95.10
13482;DHT22;6813;60.352;15.746;2023-04-15T06:59:24;10.80;94.20
13482;DHT22;6813;60.352;15.746;2023-04-15T07:01:49;10.50;94.10
13482;DHT22;6813;60.352;15.746;2023-04-15T07:04:15;10.50;95.10
13482;DHT22;6813;60.352;15.746;2023-04-15T07:06:41;10.40;95.10
13482;DHT22;6813;60.352;15.746;2023-04-15T07:09:07;10.30;94.90
13482;DHT22;6813;60.352;15.746;2023-04-15T07:11:33;10.20;95.10
13482;DHT22;6813;60.352;15.746;2023-04-15T07:13:58;10.20;95.80
13482;DHT22;6813;60.352;15.746;2023-04-15T07:16:24;10.00;94.90
13482;DHT22;6813;60.352;15.746;2023-04-15T07:18:50;10.00;95.20
13482;DHT22;6813;60.352;15.746;2023-04-15T07:21:16;9.90;95.70
13482;DHT22;6813;60.352;15.746;2023-04-15T07:23:42;9.70;95.40
13482;DHT22;6813;60.352;15.746;2023-04-15T07:26:08;9.60;96.00
13482;DHT22;6813;60.352;15.746;2023-04-15T07:28:34;9.40;96.10
13482;DHT22;6813;60.352;15.746;2023-04-15T07:30:59;9.30;96.40
13482;DHT22;6813;60.352;15.746;2023-04-15T07:33:25;9.20;96.20
13482;DHT22;6813;60.352;15.746;2023-04-15T07:35:51;9.20;96.70
13482;DHT22;6813;60.352;15.746;2023-04-15T07:38:20;9.20;96.50
13482;DHT22;6813;60.352;15.746;2023-04-15T07:40:46;9.10;96.60
13482;DHT22;6813;60.352;15.746;2023-04-15T07:43:12;9.10;96.50
13482;DHT22;6813;60.352;15.746;2023-04-15T07:45:38;9.10;96.60
13482;DHT22;6813;60.352;15.746;2023-04-15T07:48:04;9.00;96.70
13482;DHT22;6813;60.352;15.746;2023-04-15T07:50:31;9.00;96.70
13482;DHT22;6813;60.352;15.746;2023-04-15T07:52:57;9.00;97.30
13482;DHT22;6813;60.352;15.746;2023-04-15T07:55:22;8.90;97.10
13482;DHT22;6813;60.352;15.746;2023-04-15T07:57:49;8.90;97.20
13482;DHT22;6813;60.352;15.746;2023-04-15T08:00:15;8.80;97.20
13482;DHT22;6813;60.352;15.746;2023-04-15T08:02:41;8.90;97.40
13482;DHT22;6813;60.352;15.746;2023-04-15T08:05:08;8.90;97.30
13482;DHT22;6813;60.352;15.746;2023-04-15T08:07:36;8.90;97.10
13482;DHT22;6813;60.352;15.746;2023-04-15T08:10:03;8.80;97.60
13482;DHT22;6813;60.352;15.746;2023-04-15T08:12:29;8.90;97.90
13482;DHT22;6813;60.352;15.746;2023-04-15T08:14:55;8.90;97.60
13482;DHT22;6813;60.352;15.746;2023-04-15T08:17:22;8.90;97.50
13482;DHT22;6813;60.352;15.746;2023-04-15T08:19:47;9.00;97.70
13482;DHT22;6813;60.352;15.746;2023-04-15T08:22:14;9.10;97.70
13482;DHT22;6813;60.352;15.746;2023-04-15T08:24:39;9.10;97.60
13482;DHT22;6813;60.352;15.746;2023-04-15T08:27:05;9.00;97.90
13482;DHT22;6813;60.352;15.746;2023-04-15T08:29:32;9.00;97.90
13482;DHT22;6813;60.352;15.746;2023-04-15T08:31:59;9.00;98.50
13482;DHT22;6813;60.352;15.746;2023-04-15T08:34:26;9.10;98.10
13482;DHT22;6813;60.352;15.746;2023-04-15T08:36:52;9.20;98.10
13482;DHT22;6813;60.352;15.746;2023-04-15T08:39:17;9.20;97.40
13482;DHT22;6813;60.352;15.746;2023-04-15T08:41:50;9.10;97.20
13482;DHT22;6813;60.352;15.746;2023-04-15T08:44:17;9.10;97.10
13482;DHT22;6813;60.352;15.746;2023-04-15T08:46:43;9.10;97.60
13482;DHT22;6813;60.352;15.746;2023-04-15T08:49:12;9.20;97.80
13482;DHT22;6813;60.352;15.746;2023-04-15T08:51:41;9.10;97.40
13482;DHT22;6813;60.352;15.746;2023-04-15T08:54:10;9.20;97.60
13482;DHT22;6813;60.352;15.746;2023-04-15T08:56:37;9.20;97.60
13482;DHT22;6813;60.352;15.746;2023-04-15T08:59:03;9.20;98.00
13482;DHT22;6813;60.352;15.746;2023-04-15T09:01:31;9.20;97.60
13482;DHT22;6813;60.352;15.746;2023-04-15T09:03:58;9.10;98.30
13482;DHT22;6813;60.352;15.746;2023-04-15T09:06:24;9.10;98.10
13482;DHT22;6813;60.352;15.746;2023-04-15T09:08:50;9.20;98.30
13482;DHT22;6813;60.352;15.746;2023-04-15T09:11:16;9.20;98.30
13482;DHT22;6813;60.352;15.746;2023-04-15T09:13:42;9.30;98.10
13482;DHT22;6813;60.352;15.746;2023-04-15T09:16:08;9.40;98.10
13482;DHT22;6813;60.352;15.746;2023-04-15T09:18:38;9.40;98.10
13482;DHT22;6813;60.352;15.746;2023-04-15T09:21:11;9.50;97.80
13482;DHT22;6813;60.352;15.746;2023-04-15T09:23:58;9.50;97.30
13482;DHT22;6813;60.352;15.746;2023-04-15T09:26:35;9.50;97.10
13482;DHT22;6813;60.352;15.746;2023-04-15T09:29:04;9.30;97.10
13482;DHT22;6813;60.352;15.746;2023-04-15T09:31:31;9.30;96.70
13482;DHT22;6813;60.352;15.746;2023-04-15T09:33:57;9.30;96.80
13482;DHT22;6813;60.352;15.746;2023-04-15T09:36:23;9.40;97.30
13482;DHT22;6813;60.352;15.746;2023-04-15T09:38:56;9.50;96.70
13482;DHT22;6813;60.352;15.746;2023-04-15T09:41:23;9.60;96.30
13482;DHT22;6813;60.352;15.746;2023-04-15T09:43:49;9.80;96.40
13482;DHT22;6813;60.352;15.746;2023-04-15T09:46:15;10.00;96.30
13482;DHT22;6813;60.352;15.746;2023-04-15T09:48:41;10.00;96.60
13482;DHT22;6813;60.352;15.746;2023-04-15T09:51:07;10.00;95.80
13482;DHT22;6813;60.352;15.746;2023-04-15T09:53:34;9.80;96.50
13482;DHT22;6813;60.352;15.746;2023-04-15T09:56:01;10.10;97.10
13482;DHT22;6813;60.352;15.746;2023-04-15T09:58:32;10.30;96.70
13482;DHT22;6813;60.352;15.746;2023-04-15T10:00:59;10.40;95.10
13482;DHT22;6813;60.352;15.746;2023-04-15T10:03:31;10.50;95.20
13482;DHT22;6813;60.352;15.746;2023-04-15T10:05:59;10.60;94.90
13482;DHT22;6813;60.352;15.746;2023-04-15T10:08:28;10.60;93.90
13482;DHT22;6813;60.352;15.746;2023-04-15T10:10:54;10.60;94.10
13482;DHT22;6813;60.352;15.746;2023-04-15T10:13:24;10.50;94.70
13482;DHT22;6813;60.352;15.746;2023-04-15T10:15:57;10.60;94.40
13482;DHT22;6813;60.352;15.746;2023-04-15T10:18:25;10.70;94.50
13482;DHT22;6813;60.352;15.746;2023-04-15T10:20:52;10.70;93.60
13482;DHT22;6813;60.352;15.746;2023-04-15T10:23:19;10.50;94.60
13482;DHT22;6813;60.352;15.746;2023-04-15T10:25:46;10.70;95.10
13482;DHT22;6813;60.352;15.746;2023-04-15T10:28:12;10.80;94.70
13482;DHT22;6813;60.352;15.746;2023-04-15T10:30:39;10.80;93.70
13482;DHT22;6813;60.352;15.746;2023-04-15T10:33:05;10.70;93.80
13482;DHT22;6813;60.352;15.746;2023-04-15T10:35:32;10.80;94.10
13482;DHT22;6813;60.352;15.746;2023-04-15T10:37:58;10.80;93.80
13482;DHT22;6813;60.352;15.746;2023-04-15T10:40:25;11.00;94.20
13482;DHT22;6813;60.352;15.746;2023-04-15T10:42:53;11.10;93.80
13482;DHT22;6813;60.352;15.746;2023-04-15T10:45:19;11.30;93.20
13482;DHT22;6813;60.352;15.746;2023-04-15T10:47:45;11.50;93.00
13482;DHT22;6813;60.352;15.746;2023-04-15T10:50:11;11.60;93.00
13482;DHT22;6813;60.352;15.746;2023-04-15T10:52:39;11.80;92.80
13482;DHT22;6813;60.352;15.746;2023-04-15T10:55:17;11.90;91.20
13482;DHT22;6813;60.352;15.746;2023-04-15T10:57:43;11.90;91.30
13482;DHT22;6813;60.352;15.746;2023-04-15T11:02:55;11.90;91.20
13482;DHT22;6813;60.352;15.746;2023-04-15T11:08:05;12.20;91.70
13482;DHT22;6813;60.352;15.746;2023-04-15T11:15:37;12.40;91.00
13482;DHT22;6813;60.352;15.746;2023-04-15T11:18:16;12.50;90.90
13482;DHT22;6813;60.352;15.746;2023-04-15T11:20:48;12.60;90.80
13482;DHT22;6813;60.352;15.746;2023-04-15T11:23:26;12.80;90.20
13482;DHT22;6813;60.352;15.746;2023-04-15T11:25:54;12.90;89.20
13482;DHT22;6813;60.352;15.746;2023-04-15T11:28:28;12.90;90.00
13482;DHT22;6813;60.352;15.746;2023-04-15T11:30:54;12.80;89.80
13482;DHT22;6813;60.352;15.746;2023-04-15T11:33:20;12.90;90.20
13482;DHT22;6813;60.352;15.746;2023-04-15T11:35:47;13.00;90.10
13482;DHT22;6813;60.352;15.746;2023-04-15T11:38:14;13.00;88.30
13482;DHT22;6813;60.352;15.746;2023-04-15T11:40:41;12.90;88.50
13482;DHT22;6813;60.352;15.746;2023-04-15T11:43:19;12.90;88.20
13482;DHT22;6813;60.352;15.746;2023-04-15T11:45:49;13.00;88.80
13482;DHT22;6813;60.352;15.746;2023-04-15T11:48:16;12.90;87.60
13482;DHT22;6813;60.352;15.746;2023-04-15T11:50:43;12.90;86.90
13482;DHT22;6813;60.352;15.746;2023-04-15T11:53:12;12.90;87.80
13482;DHT22;6813;60.352;15.746;2023-04-15T11:55:42;12.90;88.20
13482;DHT22;6813;60.352;15.746;2023-04-15T11:58:25;12.80;86.90
13482;DHT22;6813;60.352;15.746;2023-04-15T12:00:53;12.80;87.10
13482;DHT22;6813;60.352;15.746;2023-04-15T12:06:10;12.60;85.80
13482;DHT22;6813;60.352;15.746;2023-04-15T12:16:39;12.30;84.90
13482;DHT22;6813;60.352;15.746;2023-04-15T12:19:17;12.10;86.10
13482;DHT22;6813;60.352;15.746;2023-04-15T12:21:48;12.10;86.70
13482;DHT22;6813;60.352;15.746;2023-04-15T12:24:14;12.10;87.40
13482;DHT22;6813;60.352;15.746;2023-04-15T12:26:52;12.10;86.10
13482;DHT22;6813;60.352;15.746;2023-04-15T12:29:20;12.10;85.60
13482;DHT22;6813;60.352;15.746;2023-04-15T12:34:34;12.10;86.10
13482;DHT22;6813;60.352;15.746;2023-04-15T12:37:02;12.10;86.20
13482;DHT22;6813;60.352;15.746;2023-04-15T12:39:33;12.00;84.80
13482;DHT22;6813;60.352;15.746;2023-04-15T12:42:00;12.00;85.40
13482;DHT22;6813;60.352;15.746;2023-04-15T12:44:26;12.00;85.40
13482;DHT22;6813;60.352;15.746;2023-04-15T12:46:55;12.00;85.00
13482;DHT22;6813;60.352;15.746;2023-04-15T12:49:22;11.90;83.80
13482;DHT22;6813;60.352;15.746;2023-04-15T12:51:50;11.80;84.00
13482;DHT22;6813;60.352;15.746;2023-04-15T12:54:17;11.80;83.50
13482;DHT22;6813;60.352;15.746;2023-04-15T12:56:44;11.70;84.90
13482;DHT22;6813;60.352;15.746;2023-04-15T12:59:11;11.60;85.60
13482;DHT22;6813;60.352;15.746;2023-04-15T13:01:38;11.60;84.60
13482;DHT22;6813;60.352;15.746;2023-04-15T13:04:05;11.50;83.80
13482;DHT22;6813;60.352;15.746;2023-04-15T13:06:31;11.50;83.30
13482;DHT22;6813;60.352;15.746;2023-04-15T13:09:03;11.30;83.50
13482;DHT22;6813;60.352;15.746;2023-04-15T13:11:32;11.30;86.30
13482;DHT22;6813;60.352;15.746;2023-04-15T13:14:02;11.30;84.60
13482;DHT22;6813;60.352;15.746;2023-04-15T13:16:29;11.30;85.30
13482;DHT22;6813;60.352;15.746;2023-04-15T13:18:55;11.30;85.70
13482;DHT22;6813;60.352;15.746;2023-04-15T13:21:24;11.30;84.70
13482;DHT22;6813;60.352;15.746;2023-04-15T13:23:50;11.30;85.80
13482;DHT22;6813;60.352;15.746;2023-04-15T13:26:16;11.10;85.40
13482;DHT22;6813;60.352;15.746;2023-04-15T13:28:42;11.10;84.20
13482;DHT22;6813;60.352;15.746;2023-04-15T13:31:08;11.10;85.00
13482;DHT22;6813;60.352;15.746;2023-04-15T13:33:33;11.10;84.30
13482;DHT22;6813;60.352;15.746;2023-04-15T13:35:59;11.10;84.30
13482;DHT22;6813;60.352;15.746;2023-04-15T13:38:25;11.20;85.10
13482;DHT22;6813;60.352;15.746;2023-04-15T13:40:51;11.20;83.60
13482;DHT22;6813;60.352;15.746;2023-04-15T13:43:17;11.10;82.80
13482;DHT22;6813;60.352;15.746;2023-04-15T13:45:43;11.00;83.40
13482;DHT22;6813;60.352;15.746;2023-04-15T13:48:09;10.90;83.70
13482;DHT22;6813;60.352;15.746;2023-04-15T13:50:35;10.80;82.80
13482;DHT22;6813;60.352;15.746;2023-04-15T13:53:01;10.70;83.40
13482;DHT22;6813;60.352;15.746;2023-04-15T13:55:26;10.70;84.50
13482;DHT22;6813;60.352;15.746;2023-04-15T13:57:52;10.80;85.50
13482;DHT22;6813;60.352;15.746;2023-04-15T14:00:18;10.80;83.70
13482;DHT22;6813;60.352;15.746;2023-04-15T14:02:44;10.70;82.60
13482;DHT22;6813;60.352;15.746;2023-04-15T14:05:10;10.70;83.30
13482;DHT22;6813;60.352;15.746;2023-04-15T14:07:36;10.40;83.90
13482;DHT22;6813;60.352;15.746;2023-04-15T14:10:02;10.40;83.80
13482;DHT22;6813;60.352;15.746;2023-04-15T14:12:28;10.40;84.90
13482;DHT22;6813;60.352;15.746;2023-04-15T14:14:53;10.20;84.20
13482;DHT22;6813;60.352;15.746;2023-04-15T14:17:19;10.20;85.20
13482;DHT22;6813;60.352;15.746;2023-04-15T14:19:45;10.20;85.90
13482;DHT22;6813;60.352;15.746;2023-04-15T14:22:11;10.20;85.10
13482;DHT22;6813;60.352;15.746;2023-04-15T14:24:37;10.20;85.00
13482;DHT22;6813;60.352;15.746;2023-04-15T14:27:02;10.10;84.70
13482;DHT22;6813;60.352;15.746;2023-04-15T14:29:28;10.20;84.00
13482;DHT22;6813;60.352;15.746;2023-04-15T14:31:54;10.20;84.70
13482;DHT22;6813;60.352;15.746;2023-04-15T14:34:22;10.20;84.70
13482;DHT22;6813;60.352;15.746;2023-04-15T14:36:50;10.10;83.10
13482;DHT22;6813;60.352;15.746;2023-04-15T14:39:16;10.00;83.20
13482;DHT22;6813;60.352;15.746;2023-04-15T14:41:42;10.00;84.20
13482;DHT22;6813;60.352;15.746;2023-04-15T14:44:07;10.00;85.10
13482;DHT22;6813;60.352;15.746;2023-04-15T14:46:34;10.00;83.90
13482;DHT22;6813;60.352;15.746;2023-04-15T14:49:00;9.90;85.60
13482;DHT22;6813;60.352;15.746;2023-04-15T14:51:26;9.90;86.20
13482;DHT22;6813;60.352;15.746;2023-04-15T14:53:51;9.90;85.90
13482;DHT22;6813;60.352;15.746;2023-04-15T14:56:17;9.90;84.90
13482;DHT22;6813;60.352;15.746;2023-04-15T14:58:43;9.70;86.80
13482;DHT22;6813;60.352;15.746;2023-04-15T15:01:09;9.80;86.20
13482;DHT22;6813;60.352;15.746;2023-04-15T15:03:34;9.70;87.00
13482;DHT22;6813;60.352;15.746;2023-04-15T15:06:00;9.70;86.90
13482;DHT22;6813;60.352;15.746;2023-04-15T15:08:26;9.70;84.90
13482;DHT22;6813;60.352;15.746;2023-04-15T15:10:52;9.50;84.70
13482;DHT22;6813;60.352;15.746;2023-04-15T15:13:17;9.50;85.80
13482;DHT22;6813;60.352;15.746;2023-04-15T15:15:44;9.40;84.60
13482;DHT22;6813;60.352;15.746;2023-04-15T15:18:09;9.40;85.90
13482;DHT22;6813;60.352;15.746;2023-04-15T15:20:35;9.40;86.00
13482;DHT22;6813;60.352;15.746;2023-04-15T15:23:01;9.50;86.10
13482;DHT22;6813;60.352;15.746;2023-04-15T15:25:27;9.60;85.80
13482;DHT22;6813;60.352;15.746;2023-04-15T15:27:53;9.50;85.30
13482;DHT22;6813;60.352;15.746;2023-04-15T15:30:19;9.50;85.60
13482;DHT22;6813;60.352;15.746;2023-04-15T15:32:45;9.50;85.50
13482;DHT22;6813;60.352;15.746;2023-04-15T15:35:10;9.40;84.40
13482;DHT22;6813;60.352;15.746;2023-04-15T15:37:36;9.30;83.80
13482;DHT22;6813;60.352;15.746;2023-04-15T15:40:06;9.30;84.30
13482;DHT22;6813;60.352;15.746;2023-04-15T15:42:33;9.30;84.30
13482;DHT22;6813;60.352;15.746;2023-04-15T15:44:59;9.30;85.20
13482;DHT22;6813;60.352;15.746;2023-04-15T15:47:25;9.20;83.80
13482;DHT22;6813;60.352;15.746;2023-04-15T15:49:56;8.90;83.90
13482;DHT22;6813;60.352;15.746;2023-04-15T15:52:22;8.90;85.40
13482;DHT22;6813;60.352;15.746;2023-04-15T15:54:47;8.80;84.60
13482;DHT22;6813;60.352;15.746;2023-04-15T15:57:13;8.80;86.20
13482;DHT22;6813;60.352;15.746;2023-04-15T15:59:39;8.70;84.70
13482;DHT22;6813;60.352;15.746;2023-04-15T16:02:09;8.60;85.70
13482;DHT22;6813;60.352;15.746;2023-04-15T16:04:36;8.40;85.30
13482;DHT22;6813;60.352;15.746;2023-04-15T16:07:01;8.40;86.50